createdAt,value
2023-04-29T00:01:23.212Z,11.1
2023-04-29T00:11:23.797Z,11
2023-04-29T00:21:24.144Z,11
2023-04-29T00:31:24.996Z,10.9
2023-04-29T00:41:25.989Z,10.8
2023-04-29T00:51:26.422Z,10.7
2023-04-29T01:11:28.247Z,10.4
2023-04-29T01:21:28.689Z,10.4
2023-04-29T01:31:28.897Z,10.4
2023-04-29T01:41:29.477Z,10.3
2023-04-29T01:51:30.300Z,10.2
2023-04-29T02:01:30.778Z,10.1
2023-04-29T02:21:31.697Z,9.9
2023-04-29T02:31:32.112Z,9.8
2023-04-29T02:41:32.674Z,9.8
2023-04-29T02:51:33.484Z,9.8
2023-04-29T03:11:34.829Z,9.8
2023-04-29T03:31:36.345Z,9.7
2023-04-29T04:11:38.928Z,9.9
2023-04-29T04:21:39.619Z,9.9
2023-04-29T04:31:40.176Z,10
2023-04-29T04:51:41.391Z,9.9
2023-04-29T05:01:42.252Z,10
2023-04-29T05:11:42.702Z,10
2023-04-29T05:31:43.968Z,9.9
2023-04-29T05:51:45.404Z,9.7
2023-04-29T06:01:46.259Z,9.7
2023-04-29T06:11:46.445Z,9.7
2023-04-29T06:21:46.677Z,9.6
2023-04-29T06:31:47.097Z,9.6
2023-04-29T06:51:48.532Z,9.6
2023-04-29T07:41:51.693Z,9.9
2023-04-29T08:01:52.658Z,10.2
2023-04-29T08:21:53.519Z,10.4
2023-04-29T08:31:54.024Z,10.6
2023-04-29T08:41:54.699Z,10.7
2023-04-29T08:51:55.278Z,10.9
2023-04-29T09:01:56.132Z,11.3
2023-04-29T09:11:56.858Z,11.4
2023-04-29T09:41:57.855Z,12
2023-04-29T09:51:58.603Z,12.3
2023-04-29T10:12:00.343Z,12.6
2023-04-29T10:22:00.632Z,12.7
2023-04-29T10:52:02.555Z,13.4
2023-04-29T11:02:03.428Z,14.1
2023-04-29T11:12:03.950Z,14.4
2023-04-29T11:22:04.116Z,14.6
2023-04-29T11:32:05.042Z,14.5
2023-04-29T11:42:05.331Z,14.6
2023-04-29T11:52:05.618Z,14.6
2023-04-29T12:02:06.618Z,14.3
2023-04-29T12:12:08.151Z,14.5
2023-04-29T12:22:08.367Z,14.7
2023-04-29T12:32:08.893Z,14.7
2023-04-29T12:42:08.990Z,14.8
2023-04-29T12:52:09.735Z,14.8
2023-04-29T13:02:10.664Z,14.7
2023-04-29T13:12:10.887Z,14.8
2023-04-29T13:32:12.727Z,15.3
2023-04-29T13:42:15.355Z,15.2
2023-04-29T14:02:24.675Z,15.5
2023-04-29T14:12:15.073Z,15.2
2023-04-29T14:22:15.631Z,15.3
2023-04-29T14:32:16.596Z,16.4
2023-04-29T14:42:17.519Z,16.3
2023-04-29T14:52:18.053Z,15.9
2023-04-29T15:02:18.440Z,15.7
2023-04-29T15:12:18.816Z,15.6
2023-04-29T15:22:19.631Z,15.4
2023-04-29T15:32:20.299Z,15.3
2023-04-29T15:42:20.465Z,15.2
2023-04-29T15:52:21.417Z,15.1
2023-04-29T16:12:23.151Z,15.1
2023-04-29T16:22:23.758Z,15
2023-04-29T16:42:25.448Z,14.9
2023-04-29T16:52:26.362Z,14.7
2023-04-29T17:02:26.889Z,14.7
2023-04-29T17:12:27.833Z,14.7
2023-04-29T17:22:28.591Z,14.6
2023-04-29T17:32:29.675Z,14.6
2023-04-29T17:42:29.920Z,14.7
2023-04-29T17:52:30.228Z,14.7
2023-04-29T18:02:30.375Z,14.6
2023-04-29T18:12:30.804Z,14.5
2023-04-29T18:22:31.495Z,14.3
2023-04-29T18:32:32.079Z,14
2023-04-29T18:42:32.365Z,13.8
2023-04-29T18:52:33.276Z,13.6
2023-04-29T19:02:33.735Z,13.3
2023-04-29T19:12:34.721Z,13
2023-04-29T19:22:35.535Z,12.8
2023-04-29T19:32:36.550Z,12.6
2023-04-29T19:42:36.899Z,12.4
2023-04-29T19:52:37.768Z,12.2
2023-04-29T20:02:38.322Z,12
2023-04-29T20:12:38.824Z,11.8
2023-04-29T20:22:39.746Z,11.5
2023-04-29T20:32:40.673Z,11.3
2023-04-29T20:42:40.881Z,11
2023-04-29T20:52:41.193Z,10.8
2023-04-29T21:02:42.038Z,10.6
2023-04-29T21:12:43.030Z,10.4
2023-04-29T21:22:43.213Z,10.3
2023-04-29T21:32:44.284Z,10.1
2023-04-29T21:42:44.418Z,9.9
2023-04-29T21:52:45.238Z,9.8
2023-04-29T22:12:46.217Z,9.6
2023-04-29T22:22:46.489Z,9.5
2023-04-29T22:32:47.637Z,9.4
2023-04-29T22:42:48.435Z,9.3
2023-04-29T22:52:49.212Z,9.3
2023-04-29T23:02:49.676Z,9
2023-04-29T23:12:50.013Z,8.9
2023-04-29T23:22:50.796Z,8.8
2023-04-29T23:32:50.994Z,8.7
